createdAt,value
2019-04-11T00:00:40.055Z,16.93
2019-04-11T00:03:07.376Z,16.50
2019-04-11T00:05:35.075Z,17.03
2019-04-11T00:08:03.740Z,19.33
2019-04-11T00:10:31.347Z,21.20
2019-04-11T00:12:59.055Z,17.67
2019-04-11T00:15:26.668Z,18.47
2019-04-11T00:17:54.382Z,17.87
2019-04-11T00:20:22.193Z,20.67
2019-04-11T00:22:50.120Z,22.23
2019-04-11T00:25:18.449Z,18.77
2019-04-11T00:27:45.827Z,29.10
2019-04-11T00:30:13.240Z,18.47
2019-04-11T00:32:41.419Z,22.53
2019-04-11T00:35:09.233Z,19.57
2019-04-11T00:37:37.060Z,20.10
2019-04-11T00:40:05.854Z,20.33
2019-04-11T00:42:33.158Z,17.07
2019-04-11T00:45:00.518Z,21.90
2019-04-11T00:47:28.977Z,20.07
2019-04-11T00:49:56.836Z,22.17
2019-04-11T00:52:25.377Z,20.43
2019-04-11T00:54:53.216Z,24.33
2019-04-11T00:57:21.078Z,19.47
2019-04-11T00:59:48.823Z,22.90
2019-04-11T01:02:16.295Z,23.07
2019-04-11T01:04:45.268Z,20.07
2019-04-11T01:07:12.826Z,23.03
2019-04-11T01:09:40.311Z,17.67
2019-04-11T01:12:08.096Z,21.03
2019-04-11T01:14:37.216Z,19.60
2019-04-11T01:17:06.193Z,16.63
2019-04-11T01:19:33.663Z,16.83
2019-04-11T01:22:01.271Z,19.37
2019-04-11T01:24:28.820Z,20.57
2019-04-11T01:26:57.313Z,23.70
2019-04-11T01:29:25.197Z,21.90
2019-04-11T01:31:54.351Z,18.90
2019-04-11T01:34:21.788Z,22.17
2019-04-11T01:36:49.180Z,20.57
2019-04-11T01:39:33.490Z,22.23
2019-04-11T01:42:00.820Z,16.30
2019-04-11T01:44:28.386Z,19.77
2019-04-11T01:46:56.300Z,16.00
2019-04-11T01:49:24.594Z,18.80
2019-04-11T01:51:51.903Z,16.47
2019-04-11T01:54:19.572Z,18.10
2019-04-11T01:56:47.518Z,22.10
2019-04-11T01:59:15.322Z,14.47
2019-04-11T02:01:47.348Z,15.87
2019-04-11T02:04:22.258Z,15.70
2019-04-11T02:06:49.958Z,16.10
2019-04-11T02:09:17.470Z,19.83
2019-04-11T02:11:45.691Z,16.40
2019-04-11T02:14:16.419Z,18.80
2019-04-11T02:16:43.217Z,16.47
2019-04-11T02:19:10.695Z,17.63
2019-04-11T02:21:38.469Z,18.97
2019-04-11T02:24:07.841Z,18.30
2019-04-11T02:26:41.416Z,25.30
2019-04-11T02:29:09.377Z,33.47
2019-04-11T02:31:37.115Z,33.67
2019-04-11T02:34:06.556Z,22.30
2019-04-11T02:36:36.464Z,29.57
2019-04-11T02:39:11.775Z,32.70
2019-04-11T02:41:35.924Z,42.60
2019-04-11T02:44:05.736Z,25.43
2019-04-11T02:46:42.562Z,34.93
2019-04-11T02:49:03.186Z,35.80
2019-04-11T02:51:31.164Z,22.30
2019-04-11T02:53:59.040Z,28.00
2019-04-11T02:56:27.794Z,31.20
2019-04-11T02:58:56.520Z,32.93
2019-04-11T03:01:24.278Z,35.90
2019-04-11T03:03:53.713Z,37.40
2019-04-11T03:06:21.554Z,37.23
2019-04-11T03:08:49.424Z,36.57
2019-04-11T03:11:19.101Z,36.70
2019-04-11T03:13:50.343Z,32.07
2019-04-11T03:16:33.205Z,30.10
2019-04-11T03:19:06.535Z,29.67
2019-04-11T03:21:20.502Z,28.97
2019-04-11T03:23:46.663Z,23.17
2019-04-11T03:26:14.235Z,24.43
2019-04-11T03:28:45.127Z,21.70
2019-04-11T03:31:46.156Z,18.70
2019-04-11T03:34:39.732Z,20.53
2019-04-11T03:39:01.740Z,28.10
2019-04-11T03:41:25.375Z,31.17
2019-04-11T03:43:50.258Z,25.50
2019-04-11T03:46:26.574Z,24.80
2019-04-11T03:48:49.158Z,20.97
2019-04-11T03:51:04.497Z,19.97
2019-04-11T03:53:34.091Z,22.27
2019-04-11T03:56:01.592Z,23.50
2019-04-11T03:58:31.158Z,20.93
2019-04-11T04:01:03.278Z,21.70
2019-04-11T04:03:29.648Z,25.43
2019-04-11T04:05:57.363Z,21.60
2019-04-11T04:08:27.078Z,22.20
2019-04-11T04:11:15.274Z,20.77
2019-04-11T04:13:46.003Z,21.73
2019-04-11T04:16:26.049Z,29.57
2019-04-11T04:19:11.720Z,27.63
2019-04-11T04:21:53.093Z,28.07
2019-04-11T04:24:37.861Z,34.17
2019-04-11T04:27:04.237Z,25.73
2019-04-11T04:29:32.249Z,27.07
2019-04-11T04:32:00.578Z,32.07
2019-04-11T04:34:28.511Z,28.07
2019-04-11T04:36:57.728Z,34.53
2019-04-11T04:39:26.805Z,36.23
2019-04-11T04:42:01.132Z,26.97
2019-04-11T04:44:24.237Z,26.93
2019-04-11T04:47:00.111Z,37.43
2019-04-11T04:49:23.723Z,32.53
2019-04-11T04:51:53.171Z,38.83
2019-04-11T04:54:22.041Z,32.20
2019-04-11T04:56:50.355Z,32.47
2019-04-11T04:59:19.336Z,33.27
2019-04-11T05:01:48.254Z,31.53
2019-04-11T05:04:15.893Z,35.37
2019-04-11T05:06:46.797Z,27.33
2019-04-11T05:09:12.865Z,26.97
2019-04-11T05:11:40.377Z,27.53
2019-04-11T05:14:07.709Z,28.43
2019-04-11T05:16:35.766Z,28.50
2019-04-11T05:19:04.473Z,27.47
2019-04-11T05:21:32.994Z,33.03
2019-04-11T05:24:00.450Z,31.93
2019-04-11T05:26:27.949Z,33.27
2019-04-11T05:28:55.329Z,32.47
2019-04-11T05:31:22.736Z,36.87
2019-04-11T05:33:50.188Z,35.37
2019-04-11T05:36:18.686Z,36.00
2019-04-11T05:38:46.365Z,37.53
2019-04-11T05:41:13.925Z,26.13
2019-04-11T05:43:41.758Z,22.53
2019-04-11T05:46:23.979Z,28.20
2019-04-11T05:48:45.800Z,24.17
2019-04-11T05:51:13.129Z,21.67
2019-04-11T05:53:41.584Z,26.67
2019-04-11T05:56:09.376Z,26.70
2019-04-11T05:58:42.133Z,32.90
2019-04-11T06:01:11.257Z,40.77
2019-04-11T06:03:40.943Z,32.13
2019-04-11T06:06:20.680Z,34.63
2019-04-11T06:08:49.357Z,31.07
2019-04-11T06:11:21.351Z,39.80
2019-04-11T06:13:49.005Z,36.37
2019-04-11T06:16:16.726Z,40.73
2019-04-11T06:19:00.953Z,41.00
2019-04-11T06:21:29.918Z,36.53
2019-04-11T06:24:16.326Z,40.10
2019-04-11T06:26:45.498Z,36.73
2019-04-11T06:29:21.287Z,38.23
2019-04-11T06:31:51.620Z,33.50
2019-04-11T06:34:19.121Z,32.67
2019-04-11T06:36:55.102Z,32.03
2019-04-11T06:39:31.402Z,28.77
2019-04-11T06:42:10.709Z,29.73
2019-04-11T06:44:42.756Z,29.57
2019-04-11T06:47:24.966Z,34.07
2019-04-11T06:49:55.076Z,32.30
2019-04-11T06:52:24.442Z,34.53
2019-04-11T06:55:08.849Z,31.53
2019-04-11T06:57:38.281Z,36.17
2019-04-11T07:00:11.058Z,32.33
2019-04-11T07:02:41.053Z,35.93
2019-04-11T07:05:10.780Z,31.67
2019-04-11T07:07:40.915Z,36.47
2019-04-11T07:10:09.415Z,33.47
2019-04-11T07:12:41.259Z,39.20
2019-04-11T07:15:10.307Z,44.13
2019-04-11T07:17:56.647Z,35.87
2019-04-11T07:20:44.576Z,39.13
2019-04-11T07:23:30.801Z,41.07
2019-04-11T07:26:05.954Z,35.20
2019-04-11T07:28:41.621Z,34.83
2019-04-11T07:31:21.305Z,34.97
2019-04-11T07:34:08.617Z,33.63
2019-04-11T07:36:55.729Z,32.23
2019-04-11T07:39:24.849Z,31.40
2019-04-11T07:41:53.967Z,29.30
2019-04-11T07:44:23.689Z,34.60
2019-04-11T07:47:13.658Z,27.87
2019-04-11T07:49:38.781Z,32.53
2019-04-11T07:52:11.058Z,22.53
2019-04-11T07:54:38.980Z,27.37
2019-04-11T07:57:08.426Z,31.57
2019-04-11T07:59:49.629Z,29.47
2019-04-11T08:02:24.525Z,28.87
2019-04-11T08:05:06.669Z,27.67
2019-04-11T08:07:38.597Z,31.43
2019-04-11T08:10:24.981Z,30.00
2019-04-11T08:12:54.401Z,31.93
2019-04-11T08:15:41.947Z,24.97
2019-04-11T08:18:16.910Z,27.43
2019-04-11T08:21:02.468Z,27.27
2019-04-11T08:23:40.170Z,28.63
2019-04-11T08:26:26.244Z,26.90
2019-04-11T08:29:05.295Z,29.67
2019-04-11T08:31:42.413Z,28.70
2019-04-11T08:34:11.085Z,29.23
2019-04-11T08:36:49.021Z,28.67
2019-04-11T08:39:17.963Z,26.53
2019-04-11T08:42:03.269Z,29.07
2019-04-11T08:44:32.121Z,22.57
2019-04-11T08:47:02.414Z,29.43
2019-04-11T08:49:32.270Z,25.87
2019-04-11T08:52:03.447Z,25.00
2019-04-11T08:54:50.731Z,29.70
2019-04-11T08:57:20.061Z,30.67
2019-04-11T08:59:51.839Z,29.70
2019-04-11T09:02:20.514Z,37.00
2019-04-11T09:05:11.993Z,34.83
2019-04-11T09:07:38.022Z,31.17
2019-04-11T09:10:24.229Z,26.40
2019-04-11T09:12:53.227Z,23.93
2019-04-11T09:15:35.138Z,26.20
2019-04-11T09:18:06.059Z,26.53
2019-04-11T09:20:50.057Z,31.57
2019-04-11T09:23:17.687Z,30.60
2019-04-11T09:26:03.508Z,25.03
2019-04-11T09:31:35.853Z,29.50
2019-04-11T09:34:05.802Z,29.37
2019-04-11T09:36:38.711Z,25.20
2019-04-11T09:39:21.335Z,36.53
2019-04-11T09:41:56.616Z,25.53
2019-04-11T09:44:25.727Z,27.77
2019-04-11T09:47:11.319Z,24.90
2019-04-11T09:49:57.902Z,27.03
2019-04-11T09:52:27.112Z,23.73
2019-04-11T09:55:01.953Z,31.80
2019-04-11T09:57:30.938Z,34.73
2019-04-11T10:00:10.087Z,30.93
2019-04-11T10:02:39.722Z,31.23
2019-04-11T10:05:16.191Z,33.27
2019-04-11T10:07:57.956Z,30.10
2019-04-11T10:10:33.084Z,28.27
2019-04-11T10:13:18.458Z,28.30
2019-04-11T10:15:57.715Z,30.53
2019-04-11T10:18:40.690Z,30.33
2019-04-11T10:21:09.897Z,29.03
2019-04-11T10:23:38.902Z,28.83
2019-04-11T10:26:07.557Z,33.40
2019-04-11T10:28:37.578Z,36.03
2019-04-11T10:31:06.592Z,31.27
2019-04-11T10:33:44.895Z,27.80
2019-04-11T10:36:16.786Z,31.27
2019-04-11T10:38:44.705Z,30.30
2019-04-11T10:41:26.187Z,29.73
2019-04-11T10:43:53.818Z,34.67
2019-04-11T10:46:23.025Z,31.30
2019-04-11T10:49:09.466Z,31.70
2019-04-11T10:51:47.673Z,29.37
2019-04-11T10:54:15.600Z,29.80
2019-04-11T10:57:01.183Z,33.73
2019-04-11T10:59:30.370Z,33.57
2019-04-11T11:02:02.403Z,32.93
2019-04-11T11:04:37.135Z,31.87
2019-04-11T11:07:06.545Z,28.80
2019-04-11T11:09:44.408Z,34.57
2019-04-11T11:12:32.949Z,29.17
2019-04-11T11:15:07.930Z,30.30
2019-04-11T11:18:27.200Z,26.77
2019-04-11T11:20:41.544Z,32.60
2019-04-11T11:23:25.202Z,32.13
2019-04-11T11:25:56.903Z,24.17
2019-04-11T11:28:28.542Z,27.30
2019-04-11T11:33:46.916Z,27.70
2019-04-11T11:36:35.932Z,23.93
2019-04-11T11:39:08.871Z,26.17
2019-04-11T11:41:54.564Z,22.53
2019-04-11T11:44:24.471Z,24.77
2019-04-11T11:47:10.174Z,22.47
2019-04-11T11:49:48.731Z,25.00
2019-04-11T11:52:26.936Z,33.00
2019-04-11T11:54:55.730Z,29.60
2019-04-11T11:57:24.744Z,28.13
2019-04-11T11:59:53.721Z,23.60
2019-04-11T12:02:23.044Z,24.57
2019-04-11T12:04:52.189Z,31.27
2019-04-11T12:07:25.069Z,25.40
2019-04-11T12:09:56.862Z,26.10
2019-04-11T12:12:42.114Z,20.23
2019-04-11T12:15:28.845Z,22.00
2019-04-11T12:18:06.729Z,23.00
2019-04-11T12:20:54.739Z,21.60
2019-04-11T12:23:48.613Z,23.50
2019-04-11T12:26:12.467Z,26.27
2019-04-11T12:28:41.551Z,24.00
2019-04-11T12:31:10.878Z,18.67
2019-04-11T12:33:49.947Z,21.17
2019-04-11T12:36:19.371Z,20.90
2019-04-11T12:39:05.044Z,19.70
2019-04-11T12:41:50.693Z,16.93
2019-04-11T12:44:22.248Z,22.90
2019-04-11T12:47:08.372Z,24.13
2019-04-11T12:49:40.085Z,20.37
2019-04-11T12:52:25.747Z,23.17
2019-04-11T12:54:55.068Z,18.53
2019-04-11T12:57:40.413Z,21.03
2019-04-11T13:00:18.459Z,20.93
2019-04-11T13:03:03.782Z,14.47
2019-04-11T13:05:32.845Z,19.93
2019-04-11T13:08:10.752Z,19.47
2019-04-11T13:10:40.006Z,15.97
2019-04-11T13:13:14.833Z,20.20
2019-04-11T13:15:46.660Z,18.77
2019-04-11T13:18:32.073Z,18.27
2019-04-11T13:21:01.261Z,18.23
2019-04-11T13:23:42.353Z,25.03
2019-04-11T13:26:23.673Z,14.13
2019-04-11T13:28:55.133Z,13.87
2019-04-11T13:31:40.464Z,18.50
2019-04-11T13:34:15.699Z,20.40
2019-04-11T13:37:01.076Z,18.30
2019-04-11T13:39:28.961Z,18.23
2019-04-11T13:42:06.868Z,15.83
2019-04-11T13:44:34.931Z,19.70
2019-04-11T13:47:13.132Z,21.27
2019-04-11T13:49:45.193Z,15.43
2019-04-11T13:52:14.288Z,16.37
2019-04-11T13:54:49.160Z,20.10
2019-04-11T13:57:24.258Z,18.47
2019-04-11T14:00:09.945Z,21.43
2019-04-11T14:02:55.702Z,23.90
2019-04-11T14:05:23.088Z,23.93
2019-04-11T14:07:52.236Z,18.90
2019-04-11T14:10:21.276Z,18.77
2019-04-11T14:12:48.701Z,15.50
2019-04-11T14:15:22.956Z,20.53
2019-04-11T14:18:06.910Z,32.67
2019-04-11T14:20:45.006Z,23.47
2019-04-11T14:23:25.985Z,21.37
2019-04-11T14:25:55.036Z,20.40
2019-04-11T14:28:26.590Z,18.37
2019-04-11T14:31:10.835Z,22.90
2019-04-11T14:33:56.595Z,22.03
2019-04-11T14:36:43.603Z,18.37
2019-04-11T14:39:12.792Z,18.10
2019-04-11T14:41:59.797Z,13.70
2019-04-11T14:44:28.936Z,14.70
2019-04-11T14:49:48.968Z,17.93
2019-04-11T14:52:36.334Z,17.37
2019-04-11T14:55:04.265Z,13.90
2019-04-11T14:57:33.229Z,16.33
2019-04-11T15:00:02.232Z,14.77
2019-04-11T15:02:48.080Z,12.67
2019-04-11T15:05:19.664Z,10.80
2019-04-11T15:07:47.281Z,12.27
2019-04-11T15:10:19.015Z,13.27
2019-04-11T15:12:48.099Z,16.50
2019-04-11T15:15:32.702Z,13.67
2019-04-11T15:18:01.760Z,14.30
2019-04-11T15:20:34.759Z,14.07
2019-04-11T15:23:06.658Z,13.40
2019-04-11T15:25:51.202Z,18.40
2019-04-11T15:28:30.544Z,23.50
2019-04-11T15:30:59.570Z,17.23
2019-04-11T15:33:44.825Z,14.77
2019-04-11T15:36:23.182Z,17.00
2019-04-11T15:39:01.124Z,18.97
2019-04-11T15:41:30.118Z,20.27
2019-04-11T15:44:15.800Z,16.90
2019-04-11T15:46:43.342Z,17.10
2019-04-11T15:49:31.258Z,23.97
2019-04-11T15:51:59.538Z,20.30
2019-04-11T15:54:31.619Z,18.50
2019-04-11T15:57:00.600Z,15.17
2019-04-11T15:59:38.840Z,28.43
2019-04-11T16:02:16.926Z,19.27
2019-04-11T16:04:48.906Z,24.23
2019-04-11T16:07:37.586Z,29.27
2019-04-11T16:10:05.899Z,30.00
2019-04-11T16:12:37.959Z,25.47
2019-04-11T16:15:23.340Z,29.27
2019-04-11T16:18:19.691Z,23.33
2019-04-11T16:20:51.442Z,25.23
2019-04-11T16:23:26.165Z,25.57
2019-04-11T16:25:54.572Z,23.87
2019-04-11T16:28:39.932Z,22.27
2019-04-11T16:31:09.659Z,24.03
2019-04-11T16:33:40.511Z,23.73
2019-04-11T16:36:09.527Z,24.87
2019-04-11T16:38:46.932Z,26.20
2019-04-11T16:41:32.009Z,20.67
2019-04-11T16:44:09.595Z,24.70
2019-04-11T16:46:41.464Z,23.50
2019-04-11T16:49:08.816Z,22.23
2019-04-11T16:51:36.131Z,24.90
2019-04-11T16:54:03.840Z,28.77
2019-04-11T16:56:31.401Z,28.77
2019-04-11T16:58:58.977Z,23.97
2019-04-11T17:01:26.545Z,23.40
2019-04-11T17:03:55.138Z,21.93
2019-04-11T17:06:41.270Z,21.33
2019-04-11T17:09:10.235Z,31.93
2019-04-11T17:11:37.663Z,25.93
2019-04-11T17:14:05.065Z,29.07
2019-04-11T17:16:32.580Z,24.13
2019-04-11T17:18:59.955Z,26.10
2019-04-11T17:21:27.428Z,31.27
2019-04-11T17:23:54.791Z,27.60
2019-04-11T17:26:23.217Z,39.13
2019-04-11T17:28:53.567Z,32.93
2019-04-11T17:31:25.651Z,28.73
2019-04-11T17:33:51.126Z,27.50
2019-04-11T17:36:18.573Z,30.50
2019-04-11T17:38:46.114Z,28.97
2019-04-11T17:41:13.600Z,29.40
2019-04-11T17:43:42.283Z,24.93
2019-04-11T17:46:10.113Z,27.33
2019-04-11T17:48:37.587Z,23.97
2019-04-11T17:51:05.766Z,27.37
2019-04-11T17:53:33.365Z,30.60
2019-04-11T17:56:00.810Z,27.73
2019-04-11T17:58:28.225Z,26.67
2019-04-11T18:00:57.275Z,27.57
2019-04-11T18:03:24.698Z,26.10
2019-04-11T18:05:52.202Z,30.40
2019-04-11T18:08:20.202Z,38.20
2019-04-11T18:10:48.320Z,39.70
2019-04-11T18:13:15.744Z,35.13
2019-04-11T18:15:43.073Z,35.63
2019-04-11T18:18:10.480Z,30.33
2019-04-11T18:20:37.916Z,32.03
2019-04-11T18:23:05.218Z,27.10
2019-04-11T18:25:32.720Z,32.33
2019-04-11T18:28:00.245Z,32.23
2019-04-11T18:30:27.724Z,29.03
2019-04-11T18:32:55.116Z,35.80
2019-04-11T18:35:22.594Z,34.57
2019-04-11T18:37:50.094Z,44.13
2019-04-11T18:40:17.659Z,47.67
2019-04-11T18:42:45.203Z,45.90
2019-04-11T18:45:12.647Z,40.97
2019-04-11T18:47:40.129Z,38.33
2019-04-11T18:50:07.590Z,34.00
2019-04-11T18:52:35.232Z,31.57
2019-04-11T18:55:03.027Z,30.83
2019-04-11T18:57:30.384Z,34.37
2019-04-11T18:59:57.901Z,33.77
2019-04-11T19:02:25.574Z,32.83
2019-04-11T19:04:53.044Z,34.53
2019-04-11T19:07:27.623Z,36.63
2019-04-11T19:09:49.579Z,28.67
2019-04-11T19:12:17.069Z,27.70
2019-04-11T19:14:45.928Z,31.60
2019-04-11T19:17:15.420Z,30.80
2019-04-11T19:19:42.545Z,27.77
2019-04-11T19:22:09.905Z,29.40
2019-04-11T19:24:37.468Z,26.23
2019-04-11T19:27:04.848Z,26.13
2019-04-11T19:29:32.298Z,29.17
2019-04-11T19:31:59.792Z,26.97
2019-04-11T19:34:27.285Z,26.90
2019-04-11T19:36:54.665Z,28.07
2019-04-11T19:39:23.295Z,23.73
2019-04-11T19:41:50.858Z,28.43
2019-04-11T19:44:19.419Z,26.97
2019-04-11T19:46:48.497Z,26.93
2019-04-11T19:49:16.590Z,24.17
2019-04-11T19:51:44.021Z,22.80
2019-04-11T19:54:11.592Z,28.73
2019-04-11T19:56:46.884Z,22.23
2019-04-11T19:59:14.355Z,25.33
2019-04-11T20:01:41.809Z,25.63
2019-04-11T20:04:09.325Z,25.00
2019-04-11T20:06:36.993Z,23.73
2019-04-11T20:09:05.756Z,24.53
2019-04-11T20:11:33.262Z,25.47
2019-04-11T20:14:02.878Z,26.50
2019-04-11T20:16:40.889Z,22.60
2019-04-11T20:19:00.803Z,22.47
2019-04-11T20:21:27.936Z,21.00
2019-04-11T20:23:55.402Z,17.77
2019-04-11T20:26:22.808Z,17.93
2019-04-11T20:28:50.874Z,23.50
2019-04-11T20:31:19.086Z,16.53
2019-04-11T20:33:46.552Z,17.30
2019-04-11T20:36:14.460Z,21.20
2019-04-11T20:38:44.704Z,15.73
2019-04-11T20:41:11.080Z,17.33
2019-04-11T20:43:38.525Z,21.30
2019-04-11T20:46:05.868Z,19.10
2019-04-11T20:48:35.174Z,18.90
2019-04-11T20:51:02.708Z,18.43
2019-04-11T20:53:30.200Z,19.33
2019-04-11T20:55:57.778Z,18.80
2019-04-11T20:58:27.389Z,20.10
2019-04-11T21:00:55.898Z,23.60
2019-04-11T21:03:23.317Z,17.80
2019-04-11T21:05:50.675Z,22.17
2019-04-11T21:08:18.191Z,20.33
2019-04-11T21:10:45.532Z,21.37
2019-04-11T21:13:13.103Z,20.83
2019-04-11T21:15:40.588Z,17.50
2019-04-11T21:18:08.012Z,17.33
2019-04-11T21:20:35.433Z,18.30
2019-04-11T21:23:02.782Z,16.73
2019-04-11T21:25:30.275Z,18.43
2019-04-11T21:27:59.046Z,18.93
2019-04-11T21:30:27.947Z,17.77
2019-04-11T21:32:55.516Z,21.37
2019-04-11T21:35:22.845Z,23.90
2019-04-11T21:37:50.291Z,21.33
2019-04-11T21:40:17.612Z,19.27
2019-04-11T21:42:45.141Z,18.03
2019-04-11T21:45:12.454Z,16.93
2019-04-11T21:47:39.836Z,18.13
2019-04-11T21:50:09.532Z,16.87
2019-04-11T21:52:36.864Z,18.83
2019-04-11T21:55:04.961Z,15.33
2019-04-11T21:57:32.388Z,19.40
2019-04-11T22:00:01.554Z,17.47
2019-04-11T22:02:28.715Z,23.87
2019-04-11T22:04:58.752Z,22.87
2019-04-11T22:07:25.002Z,17.23
2019-04-11T22:09:52.396Z,17.20
2019-04-11T22:12:19.705Z,17.23
2019-04-11T22:14:47.235Z,20.90
2019-04-11T22:17:15.926Z,17.47
2019-04-11T22:19:45.816Z,19.00
2019-04-11T22:22:12.532Z,19.97
2019-04-11T22:24:39.999Z,18.10
2019-04-11T22:27:07.344Z,19.33
2019-04-11T22:29:34.776Z,17.40
2019-04-11T22:32:02.113Z,14.90
2019-04-11T22:34:31.046Z,23.40
2019-04-11T22:37:00.071Z,20.10
2019-04-11T22:39:29.025Z,17.27
2019-04-11T22:41:56.775Z,19.33
2019-04-11T22:44:24.172Z,17.10
2019-04-11T22:46:51.504Z,19.40
2019-04-11T22:49:18.820Z,18.60
2019-04-11T22:51:46.140Z,20.40
2019-04-11T22:54:13.798Z,16.77
2019-04-11T22:56:41.835Z,16.00
2019-04-11T22:59:13.620Z,17.60
2019-04-11T23:01:38.699Z,18.30
2019-04-11T23:04:06.068Z,18.47
2019-04-11T23:06:33.356Z,15.33
2019-04-11T23:09:00.731Z,13.13
2019-04-11T23:11:28.051Z,17.10
2019-04-11T23:13:55.770Z,15.63
2019-04-11T23:16:23.168Z,14.93
2019-04-11T23:18:50.646Z,18.90
2019-04-11T23:21:18.058Z,15.47
2019-04-11T23:23:45.481Z,14.30
2019-04-11T23:26:13.191Z,17.37
2019-04-11T23:28:40.570Z,16.37
2019-04-11T23:31:08.041Z,15.30
2019-04-11T23:33:35.386Z,20.97
2019-04-11T23:36:02.791Z,22.67
2019-04-11T23:38:30.469Z,16.73
2019-04-11T23:40:57.877Z,22.30
2019-04-11T23:43:25.397Z,16.33
2019-04-11T23:45:52.821Z,31.13
2019-04-11T23:48:23.711Z,32.30
2019-04-11T23:50:49.220Z,14.80
2019-04-11T23:53:16.570Z,17.93
2019-04-11T23:55:43.884Z,27.03
2019-04-11T23:58:11.295Z,18.10
